Time;durP1;ratioP1;P1;durP2;ratioP2;P2;SDS_P1;SDS_P2;PMS_P1;PMS_P2;Temp;Humidity;BMP_temperature;BMP_pressure;BME280_temperature;BME280_humidity;BME280_pressure;Samples;Min_cycle;Max_cycle;Signal;HPM_P1;HPM_P2
2022/01/23 00:01:06;;;;;;;252.02;118.60;;;-2.00;99.90;;;;;;5097220;28;20098;-79
2022/01/23 00:03:33;;;;;;;303.52;129.40;;;-2.10;99.90;;;;;;5097434;28;20117;-78
2022/01/23 00:06:01;;;;;;;309.40;135.90;;;-2.30;99.90;;;;;;5097100;28;20115;-79
2022/01/23 00:08:30;;;;;;;293.08;129.43;;;-2.50;99.90;;;;;;5096547;28;20029;-79
2022/01/23 00:10:57;;;;;;;334.00;144.55;;;-2.60;99.90;;;;;;5096253;28;20058;-78
2022/01/23 00:13:29;;;;;;;544.60;236.20;;;-2.70;99.90;;;;;;5093969;28;20080;-77
2022/01/23 00:18:41;;;;;;;557.38;239.20;;;-2.90;99.90;;;;;;5096534;28;20036;-79
2022/01/23 00:21:09;;;;;;;567.95;251.77;;;-3.00;99.90;;;;;;5097515;28;20135;-78
2022/01/23 00:31:48;;;;;;;255.38;122.47;;;-3.20;99.90;;;;;;5101600;28;20541;-79
2022/01/23 00:34:16;;;;;;;232.45;114.13;;;-3.30;99.90;;;;;;5101433;28;20453;-79
2022/01/23 00:36:44;;;;;;;231.60;113.03;;;-3.40;99.90;;;;;;5101339;28;20458;-79
2022/01/23 00:39:13;;;;;;;233.85;113.95;;;-3.40;99.90;;;;;;5102047;28;20149;-79
2022/01/23 00:41:40;;;;;;;385.95;174.23;;;-3.50;99.90;;;;;;5101862;28;20106;-79
2022/01/23 00:44:08;;;;;;;352.20;156.98;;;-3.60;99.90;;;;;;5101152;28;20051;-80
2022/01/23 00:46:38;;;;;;;322.05;147.38;;;-3.50;99.90;;;;;;5101196;28;20124;-78
2022/01/23 00:49:25;;;;;;;316.10;140.68;;;-3.60;99.90;;;;;;5101353;28;20051;-80
2022/01/23 00:51:55;;;;;;;247.50;113.47;;;-3.60;99.90;;;;;;5100719;28;20044;-80
2022/01/23 00:54:25;;;;;;;236.77;114.97;;;-3.60;99.90;;;;;;5101468;28;20071;-80
2022/01/23 00:56:52;;;;;;;258.73;121.95;;;-3.50;99.90;;;;;;5101395;28;20048;-79
2022/01/23 00:59:20;;;;;;;254.50;123.50;;;-3.50;99.90;;;;;;5099936;28;20143;-79
2022/01/23 01:01:47;;;;;;;220.98;106.88;;;-3.70;99.90;;;;;;5100604;28;20437;-78
2022/01/23 01:04:15;;;;;;;159.73;79.18;;;-3.70;99.90;;;;;;5098868;28;20143;-78
2022/01/23 01:06:43;;;;;;;160.38;77.80;;;-3.80;99.90;;;;;;5099843;28;20044;-78
2022/01/23 01:09:13;;;;;;;162.40;80.50;;;-4.00;99.90;;;;;;5098227;28;20052;-77
2022/01/23 01:17:14;;;;;;;111.93;57.25;;;-4.30;99.90;;;;;;5094926;28;20112;-77
2022/01/23 01:31:03;;;;;;;96.85;51.42;;;-4.60;99.90;;;;;;5082021;28;20174;-80
2022/01/23 01:33:42;;;;;;;109.47;58.42;;;-4.70;99.90;;;;;;5079763;28;20044;-80
2022/01/23 01:36:25;;;;;;;116.47;63.80;;;-4.70;99.90;;;;;;5080139;28;20094;-78
2022/01/23 01:38:57;;;;;;;144.52;76.18;;;-4.70;99.90;;;;;;5091948;28;20052;-80
2022/01/23 01:41:26;;;;;;;111.82;57.60;;;-4.80;99.90;;;;;;5117009;28;20048;-78
2022/01/23 01:43:57;;;;;;;118.10;63.72;;;-4.70;99.90;;;;;;5098593;28;20063;-78
2022/01/23 01:46:45;;;;;;;157.13;83.72;;;-4.60;99.90;;;;;;5092473;28;20052;-81
2022/01/23 01:49:13;;;;;;;152.75;80.65;;;-4.70;99.90;;;;;;5099829;28;20519;-81
2022/01/23 01:51:43;;;;;;;158.95;83.53;;;-4.80;99.90;;;;;;5098262;28;20040;-79
2022/01/23 01:54:17;;;;;;;153.77;78.63;;;-4.80;99.90;;;;;;5097974;28;20044;-80
2022/01/23 01:56:50;;;;;;;149.30;76.70;;;-4.90;99.90;;;;;;5098621;28;20573;-78
2022/01/23 02:10:39;;;;;;;212.70;108.35;;;-5.00;99.90;;;;;;5117171;28;20060;-79
2022/01/23 02:13:10;;;;;;;214.13;111.00;;;-5.10;99.90;;;;;;5100722;28;20048;-79
2022/01/23 02:25:28;;;;;;;137.05;70.15;;;-5.20;99.90;;;;;;5100665;28;20044;-81
2022/01/23 02:52:53;;;;;;;89.93;46.47;;;-5.70;99.90;;;;;;5098106;28;20284;-80
2022/01/23 02:55:25;;;;;;;78.82;43.55;;;-5.90;99.90;;;;;;5100806;28;20097;-76
2022/01/23 02:58:00;;;;;;;82.68;45.13;;;-6.00;99.90;;;;;;5081052;28;20055;-79
2022/01/23 03:00:36;;;;;;;86.15;46.80;;;-6.10;99.90;;;;;;5093269;28;20110;-78
2022/01/23 03:03:09;;;;;;;83.50;45.70;;;-6.10;99.90;;;;;;5077655;28;20040;-78
2022/01/23 03:06:17;;;;;;;83.78;46.53;;;-6.10;99.90;;;;;;5076270;28;20049;-78
2022/01/23 03:09:08;;;;;;;82.13;44.92;;;-6.10;99.90;;;;;;5098042;28;20433;-79
2022/01/23 03:12:01;;;;;;;87.78;45.55;;;-6.00;99.90;;;;;;5095687;28;20376;-79
2022/01/23 03:14:42;;;;;;;94.85;49.72;;;-6.00;99.90;;;;;;5097417;28;20135;-77
2022/01/23 03:25:53;;;;;;;100.10;51.47;;;-6.30;99.90;;;;;;5095956;28;20048;-78
2022/01/23 03:28:33;;;;;;;109.43;54.78;;;-6.30;99.90;;;;;;5098014;28;20052;-78
2022/01/23 03:31:08;;;;;;;108.03;58.08;;;-6.40;99.90;;;;;;5097219;28;20109;-79
2022/01/23 03:33:39;;;;;;;107.30;56.50;;;-6.40;99.90;;;;;;5097464;28;20040;-79
2022/01/23 03:36:07;;;;;;;78.97;43.40;;;-6.50;99.90;;;;;;5095264;28;20454;-78
2022/01/23 03:38:35;;;;;;;90.28;48.85;;;-6.50;99.90;;;;;;5097209;28;20080;-78
2022/01/23 03:41:02;;;;;;;91.00;48.63;;;-6.40;99.90;;;;;;5082486;28;20040;-79
2022/01/23 03:43:34;;;;;;;97.38;53.03;;;-6.50;99.90;;;;;;5098846;28;20060;-79
2022/01/23 03:46:23;;;;;;;123.07;63.22;;;-6.50;99.90;;;;;;5096001;28;20065;-80
2022/01/23 03:51:40;;;;;;;136.93;70.22;;;-6.50;99.90;;;;;;5095932;28;20090;-79
2022/01/23 03:54:07;;;;;;;123.97;65.88;;;-6.50;99.90;;;;;;5096858;28;20056;-80
2022/01/23 03:56:35;;;;;;;113.88;60.30;;;-6.60;99.90;;;;;;5095323;28;20059;-79
2022/01/23 03:59:04;;;;;;;101.57;55.63;;;-6.60;99.90;;;;;;5096275;28;20074;-78
2022/01/23 04:01:32;;;;;;;98.82;52.65;;;-6.60;99.90;;;;;;5095387;28;20109;-77
2022/01/23 04:04:03;;;;;;;119.40;63.08;;;-6.60;99.90;;;;;;5099396;28;20044;-78
2022/01/23 04:06:32;;;;;;;119.40;65.95;;;-6.60;99.90;;;;;;5099896;28;20576;-78
2022/01/23 04:09:00;;;;;;;125.82;66.28;;;-6.80;99.90;;;;;;5099961;28;20443;-78
2022/01/23 04:11:27;;;;;;;116.68;64.22;;;-6.70;99.90;;;;;;5099525;28;20039;-78
2022/01/23 04:14:00;;;;;;;98.90;53.92;;;-6.70;99.90;;;;;;5100590;28;20075;-78
2022/01/23 04:16:58;;;;;;;91.88;51.75;;;-6.70;99.90;;;;;;5099277;28;20055;-78
2022/01/23 04:33:31;;;;;;;92.68;52.10;;;-6.80;99.90;;;;;;5115525;28;20047;-79
2022/01/23 05:00:58;;;;;;;101.32;54.83;;;-7.20;99.90;;;;;;5083012;28;20044;-80
2022/01/23 05:06:24;;;;;;;86.45;47.78;;;-7.00;99.90;;;;;;5095299;28;20038;-79
2022/01/23 05:08:59;;;;;;;108.93;55.53;;;-7.00;99.90;;;;;;5081386;28;20040;-80
2022/01/23 05:11:47;;;;;;;116.53;59.63;;;-6.90;99.90;;;;;;5102865;28;20046;-80
2022/01/23 05:14:28;;;;;;;120.05;60.47;;;-6.90;99.90;;;;;;5103599;28;20175;-77
2022/01/23 05:16:57;;;;;;;146.93;69.70;;;-6.80;99.90;;;;;;5103644;28;20071;-80
2022/01/23 05:19:25;;;;;;;115.60;60.05;;;-6.80;99.90;;;;;;5102683;28;20040;-78
2022/01/23 05:22:18;;;;;;;104.55;55.13;;;-6.80;99.90;;;;;;5103512;28;20118;-79
2022/01/23 05:24:51;;;;;;;95.97;52.58;;;-6.80;99.90;;;;;;5099535;28;20040;-80
2022/01/23 05:27:21;;;;;;;85.50;48.47;;;-6.80;99.90;;;;;;5100507;28;20067;-80
2022/01/23 05:29:49;;;;;;;79.78;45.00;;;-6.80;99.90;;;;;;5101463;28;20063;-80
2022/01/23 05:32:17;;;;;;;89.63;49.38;;;-6.80;99.90;;;;;;5100694;28;20143;-80
2022/01/23 05:34:45;;;;;;;89.60;50.80;;;-6.90;99.90;;;;;;5102763;28;20075;-78
2022/01/23 05:37:33;;;;;;;93.03;52.30;;;-6.90;99.90;;;;;;5100692;28;20056;-79
2022/01/23 05:40:02;;;;;;;110.30;57.83;;;-7.10;99.90;;;;;;5098693;28;20502;-77
2022/01/23 05:42:33;;;;;;;109.78;58.88;;;-7.10;99.90;;;;;;5099718;28;20040;-79
2022/01/23 05:45:01;;;;;;;103.22;55.00;;;-7.00;99.90;;;;;;5102497;28;20074;-77
2022/01/23 05:47:42;;;;;;;103.70;55.38;;;-7.00;99.90;;;;;;5106581;28;20044;-77
2022/01/23 05:50:24;;;;;;;96.38;55.10;;;-7.10;99.90;;;;;;5109867;28;20090;-77
2022/01/23 05:53:05;;;;;;;89.18;50.08;;;-7.30;99.90;;;;;;5108774;28;20097;-78
2022/01/23 05:55:44;;;;;;;82.57;46.55;;;-7.40;99.90;;;;;;5108451;28;20068;-80
2022/01/23 05:58:24;;;;;;;79.47;42.75;;;-7.40;99.90;;;;;;5102345;28;20048;-76
2022/01/23 06:00:53;;;;;;;70.03;40.22;;;-7.50;99.90;;;;;;5107978;28;20039;-78
2022/01/23 06:03:22;;;;;;;72.57;41.70;;;-7.50;99.90;;;;;;5121670;28;20418;-80
2022/01/23 06:06:05;;;;;;;82.57;44.90;;;-7.40;99.90;;;;;;5102065;28;20031;-78
2022/01/23 06:08:35;;;;;;;79.82;43.83;;;-7.40;99.90;;;;;;5109161;28;20048;-78
2022/01/23 06:11:03;;;;;;;89.45;50.15;;;-7.40;99.90;;;;;;5103491;28;20047;-77
2022/01/23 06:13:39;;;;;;;94.70;52.30;;;-7.40;99.90;;;;;;5108252;28;20055;-78
2022/01/23 06:16:08;;;;;;;111.72;57.85;;;-7.30;99.90;;;;;;5110529;28;20436;-80
2022/01/23 06:18:40;;;;;;;126.47;63.33;;;-7.20;99.90;;;;;;5109573;28;20046;-78
2022/01/23 06:21:27;;;;;;;126.95;66.75;;;-7.20;99.90;;;;;;5112231;28;20047;-79
2022/01/23 06:24:08;;;;;;;134.65;70.65;;;-7.20;99.90;;;;;;5110691;28;20044;-79
2022/01/23 06:26:58;;;;;;;148.48;78.43;;;-7.20;99.90;;;;;;5103861;28;20045;-79
2022/01/23 06:29:30;;;;;;;155.52;83.80;;;-7.20;99.90;;;;;;5086392;28;20088;-77
2022/01/23 06:31:59;;;;;;;179.73;94.05;;;-7.20;99.90;;;;;;5087302;28;20055;-79
2022/01/23 06:34:29;;;;;;;171.95;92.25;;;-7.20;99.90;;;;;;5104870;28;20105;-78
2022/01/23 06:36:58;;;;;;;157.10;86.28;;;-7.20;99.90;;;;;;5106314;28;20108;-76
2022/01/23 06:39:27;;;;;;;149.82;80.22;;;-7.20;99.90;;;;;;5105677;28;20039;-80
2022/01/23 06:41:59;;;;;;;142.00;76.93;;;-7.20;99.90;;;;;;5102569;28;20149;-78
2022/01/23 06:44:27;;;;;;;137.52;77.07;;;-7.20;99.90;;;;;;5105008;28;20048;-79
2022/01/23 06:46:56;;;;;;;156.02;86.65;;;-7.10;99.90;;;;;;5104353;28;20465;-79
2022/01/23 06:49:24;;;;;;;168.50;91.63;;;-7.00;99.90;;;;;;5103527;28;20048;-79
2022/01/23 06:51:52;;;;;;;203.73;104.47;;;-6.90;99.90;;;;;;5103764;28;20040;-79
2022/01/23 06:54:23;;;;;;;178.13;94.85;;;-7.00;99.90;;;;;;5105122;28;20044;-79
2022/01/23 06:56:55;;;;;;;172.90;92.80;;;-7.00;99.90;;;;;;5097137;28;20115;-79
2022/01/23 06:59:23;;;;;;;153.20;81.13;;;-7.00;99.90;;;;;;5099690;28;20044;-79
2022/01/23 07:01:58;;;;;;;124.90;69.53;;;-7.00;99.90;;;;;;5102887;28;20507;-80
2022/01/23 07:04:43;;;;;;;155.85;84.22;;;-6.90;99.90;;;;;;5099970;28;20119;-80
2022/01/23 07:07:33;;;;;;;386.65;168.07;;;-6.90;99.90;;;;;;5096007;28;20049;-79
2022/01/23 07:10:24;;;;;;;192.10;99.25;;;-7.00;99.90;;;;;;5098966;28;20047;-78
2022/01/23 07:13:13;;;;;;;193.85;97.82;;;-7.00;99.90;;;;;;5078382;28;20105;-78
2022/01/23 07:16:02;;;;;;;299.98;137.25;;;-6.90;99.90;;;;;;5087640;28;20055;-79
2022/01/23 07:19:02;;;;;;;389.95;174.00;;;-6.80;99.90;;;;;;5056573;28;20039;-80
2022/01/23 07:21:36;;;;;;;253.70;122.13;;;-6.90;99.90;;;;;;5100017;28;20047;-79
2022/01/23 07:24:04;;;;;;;357.23;159.77;;;-6.60;99.90;;;;;;5101425;28;20036;-79
2022/01/23 07:26:34;;;;;;;317.83;143.85;;;-6.50;99.90;;;;;;5094134;28;20094;-79
2022/01/23 07:29:05;;;;;;;374.63;167.93;;;-6.20;99.90;;;;;;5089773;28;20128;-79
2022/01/23 07:31:56;;;;;;;282.10;128.75;;;-6.00;99.90;;;;;;5100270;28;20051;-79
2022/01/23 07:34:25;;;;;;;181.52;91.20;;;-5.70;99.90;;;;;;5094105;28;20040;-79
2022/01/23 07:36:53;;;;;;;150.52;77.95;;;-5.40;99.90;;;;;;5078747;28;20048;-80
2022/01/23 07:39:51;;;;;;;170.32;89.10;;;-5.30;99.90;;;;;;5079062;28;20049;-80
2022/01/23 07:42:35;;;;;;;201.60;102.75;;;-5.20;99.90;;;;;;5077062;28;20065;-81
2022/01/23 07:45:05;;;;;;;193.65;101.18;;;-5.20;99.90;;;;;;5081457;28;20127;-80
2022/01/23 07:47:42;;;;;;;207.90;102.13;;;-5.20;99.90;;;;;;5092582;28;20396;-81
2022/01/23 07:50:28;;;;;;;202.65;104.95;;;-5.00;99.90;;;;;;5087923;28;20132;-79
2022/01/23 07:53:04;;;;;;;293.30;142.07;;;-5.10;99.90;;;;;;5098059;28;20052;-79
2022/01/23 07:56:02;;;;;;;256.35;128.07;;;-5.00;99.90;;;;;;5051582;28;20057;-81
2022/01/23 07:59:08;;;;;;;352.40;167.52;;;-4.70;99.90;;;;;;5064462;28;20044;-79
2022/01/23 08:01:58;;;;;;;365.45;174.25;;;-4.50;99.90;;;;;;5057541;28;20037;-81
2022/01/23 08:04:57;;;;;;;239.52;120.15;;;-4.30;99.90;;;;;;5098776;28;20097;-80
2022/01/23 08:07:31;;;;;;;230.75;116.97;;;-4.20;99.90;;;;;;5102995;28;20449;-80
2022/01/23 08:10:11;;;;;;;;;;;-4.10;99.90;;;;;;5101885;28;20051;-79
2022/01/23 08:12:41;;;;;;;235.48;117.82;;;-4.20;99.90;;;;;;5105289;28;20379;-79
2022/01/23 08:15:10;;;;;;;230.38;115.15;;;-4.00;99.90;;;;;;5104342;28;20112;-82
2022/01/23 08:17:39;;;;;;;221.50;109.72;;;-3.80;99.90;;;;;;5092570;28;20063;-78
2022/01/23 08:20:08;;;;;;;229.05;109.95;;;-3.60;99.90;;;;;;5102255;28;20139;-79
2022/01/23 08:22:36;;;;;;;224.93;107.43;;;-3.50;99.90;;;;;;5094284;28;20052;-80
2022/01/23 08:25:05;;;;;;;215.15;107.20;;;-3.40;99.90;;;;;;5102457;28;20058;-78
2022/01/23 08:27:33;;;;;;;208.65;101.88;;;-3.20;99.90;;;;;;5105727;28;20074;-79
2022/01/23 08:30:00;;;;;;;216.57;106.60;;;-3.00;99.90;;;;;;5097578;28;20127;-79
2022/01/23 08:32:28;;;;;;;208.10;105.30;;;-2.70;99.90;;;;;;5102277;28;20048;-79
2022/01/23 08:34:58;;;;;;;265.77;131.93;;;-2.50;99.90;;;;;;5110082;28;20032;-80
2022/01/23 08:37:26;;;;;;;254.38;124.75;;;-2.40;99.90;;;;;;5104827;28;20044;-79
2022/01/23 08:39:54;;;;;;;244.65;119.93;;;-2.20;99.90;;;;;;5093222;28;20040;-80
2022/01/23 08:42:22;;;;;;;243.38;117.85;;;-2.00;99.90;;;;;;5090547;28;20104;-79
2022/01/23 08:44:50;;;;;;;248.90;121.05;;;-1.80;99.90;;;;;;5087162;28;20037;-76
2022/01/23 08:47:19;;;;;;;247.95;122.80;;;-1.60;99.90;;;;;;5089148;28;20076;-82
2022/01/23 08:49:48;;;;;;;251.02;123.65;;;-1.40;99.90;;;;;;5091028;28;20068;-81
2022/01/23 08:52:19;;;;;;;266.75;121.70;;;-1.20;99.90;;;;;;5108178;28;20115;-80
2022/01/23 08:54:49;;;;;;;223.52;103.10;;;-0.90;99.90;;;;;;5097764;28;20056;-80
2022/01/23 08:57:17;;;;;;;198.60;95.40;;;-0.80;99.90;;;;;;5098193;28;20068;-79
2022/01/23 08:59:46;;;;;;;205.55;97.70;;;-0.60;99.90;;;;;;5088270;28;20052;-80
2022/01/23 09:02:14;;;;;;;174.85;82.25;;;-0.40;99.90;;;;;;5102045;28;20066;-82
2022/01/23 09:04:41;;;;;;;147.93;69.70;;;-0.30;99.90;;;;;;5093104;28;20040;-80
2022/01/23 09:07:09;;;;;;;139.18;63.42;;;-0.10;99.90;;;;;;5099887;28;20056;-78
2022/01/23 09:09:39;;;;;;;151.32;67.28;;;0.10;99.90;;;;;;5099013;28;20044;-80
2022/01/23 09:12:22;;;;;;;151.30;71.15;;;-0.20;99.90;;;;;;5094713;28;20045;-81
2022/01/23 09:14:50;;;;;;;140.25;65.82;;;0.00;99.90;;;;;;5101645;28;20483;-80
2022/01/23 09:17:17;;;;;;;145.30;70.15;;;0.10;99.90;;;;;;5096103;28;20052;-81
2022/01/23 09:19:47;;;;;;;138.43;66.03;;;0.40;99.90;;;;;;5106609;28;20086;-81
2022/01/23 09:22:14;;;;;;;127.90;60.78;;;0.70;99.90;;;;;;5113207;28;20031;-80
2022/01/23 09:24:43;;;;;;;129.00;59.92;;;0.70;99.90;;;;;;5111221;28;20134;-79
2022/01/23 09:27:18;;;;;;;118.75;60.28;;;0.90;99.90;;;;;;5093442;28;20060;-77
2022/01/23 09:29:49;;;;;;;108.03;53.28;;;1.00;99.90;;;;;;5097974;28;20418;-77
2022/01/23 09:32:18;;;;;;;117.80;58.85;;;1.10;99.90;;;;;;5098835;28;20522;-77
2022/01/23 09:34:46;;;;;;;121.38;57.45;;;1.20;99.90;;;;;;5099319;28;20036;-78
2022/01/23 09:37:16;;;;;;;109.15;54.40;;;1.30;99.90;;;;;;5096753;28;20044;-75
2022/01/23 09:39:49;;;;;;;104.65;51.13;;;1.10;99.90;;;;;;5096332;28;20130;-77
2022/01/23 09:42:19;;;;;;;100.32;50.75;;;1.00;99.90;;;;;;5093643;28;20050;-77
2022/01/23 09:44:48;;;;;;;107.10;53.10;;;1.10;99.90;;;;;;5089854;28;20046;-76
2022/01/23 09:47:19;;;;;;;117.35;56.78;;;1.20;99.90;;;;;;5096751;28;20048;-76
2022/01/23 09:49:47;;;;;;;112.20;57.60;;;1.10;99.90;;;;;;5094876;28;20047;-77
2022/01/23 09:52:15;;;;;;;112.57;55.83;;;1.30;99.90;;;;;;5099563;28;20044;-76
2022/01/23 09:54:53;;;;;;;96.80;50.28;;;1.30;99.90;;;;;;5099883;28;20123;-76
2022/01/23 09:57:24;;;;;;;87.78;45.60;;;1.60;99.90;;;;;;5099171;28;20055;-77
2022/01/23 09:59:53;;;;;;;85.63;42.97;;;1.80;99.90;;;;;;5097385;28;20055;-78
2022/01/23 10:02:21;;;;;;;83.97;44.03;;;1.90;99.90;;;;;;5099828;28;20059;-76
2022/01/23 10:04:48;;;;;;;77.95;41.45;;;2.00;99.90;;;;;;5099617;28;20095;-78
2022/01/23 10:07:16;;;;;;;70.57;37.45;;;2.20;99.90;;;;;;5096080;28;20101;-78
2022/01/23 10:09:46;;;;;;;77.63;41.55;;;2.10;99.90;;;;;;5095008;28;20048;-76
2022/01/23 10:12:15;;;;;;;74.93;41.72;;;2.20;99.90;;;;;;5094504;28;20043;-78
2022/01/23 10:14:42;;;;;;;75.63;39.63;;;2.30;99.90;;;;;;5095648;28;20422;-77
2022/01/23 10:17:10;;;;;;;64.25;34.10;;;2.30;99.90;;;;;;5095369;28;20036;-76
2022/01/23 10:19:38;;;;;;;59.35;33.40;;;2.30;99.90;;;;;;5091066;28;20036;-77
2022/01/23 10:22:06;;;;;;;59.53;30.23;;;2.40;99.90;;;;;;5075169;28;20128;-77
2022/01/23 10:24:34;;;;;;;55.75;29.83;;;2.30;99.90;;;;;;5093156;28;20044;-77
2022/01/23 10:27:03;;;;;;;48.20;25.95;;;2.20;99.90;;;;;;5093853;28;20048;-77
2022/01/23 10:29:35;;;;;;;55.53;28.73;;;2.30;99.90;;;;;;5099072;28;20480;-79
2022/01/23 10:32:12;;;;;;;49.88;27.58;;;2.20;99.90;;;;;;5081636;28;20041;-78
2022/01/23 10:34:54;;;;;;;55.20;27.58;;;2.30;99.90;;;;;;5082210;28;20131;-78
2022/01/23 10:37:32;;;;;;;50.50;28.05;;;2.50;99.90;;;;;;5086571;28;20048;-76
2022/01/23 10:40:01;;;;;;;52.58;28.10;;;2.70;99.80;;;;;;5093791;28;20444;-77
2022/01/23 10:48:35;;;;;;;41.72;22.60;;;3.00;98.40;;;;;;5096408;28;20047;-77
2022/01/23 10:51:22;;;;;;;40.25;21.35;;;3.00;99.90;;;;;;5095337;28;20044;-78
2022/01/23 10:54:22;;;;;;;39.20;21.90;;;2.90;99.90;;;;;;5090782;28;20043;-77
2022/01/23 10:57:04;;;;;;;38.08;20.88;;;3.00;99.90;;;;;;5097278;28;20048;-77
2022/01/23 10:59:48;;;;;;;41.85;19.90;;;3.00;99.90;;;;;;5111295;28;20087;-77
2022/01/23 11:02:22;;;;;;;37.00;19.52;;;3.10;99.90;;;;;;5093934;28;20078;-77
2022/01/23 11:05:01;;;;;;;29.95;18.30;;;3.20;99.90;;;;;;5093716;28;20052;-77
2022/01/23 11:07:29;;;;;;;30.13;16.80;;;3.20;99.90;;;;;;5095849;28;20061;-76
2022/01/23 11:10:01;;;;;;;31.80;18.80;;;3.20;99.90;;;;;;5095324;28;20135;-76
2022/01/23 11:12:45;;;;;;;37.33;18.48;;;3.30;99.90;;;;;;5085972;28;20082;-78
2022/01/23 11:18:03;;;;;;;25.55;14.40;;;3.50;99.90;;;;;;5082650;28;20040;-78
2022/01/23 11:55:28;;;;;;;25.10;15.75;;;3.60;96.40;;;;;;5078235;28;20042;-76
2022/01/23 11:57:56;;;;;;;25.83;15.27;;;3.70;99.90;;;;;;5079303;28;20145;-77
2022/01/23 12:00:28;;;;;;;27.73;16.17;;;3.80;99.90;;;;;;5078906;28;20061;-76
2022/01/23 12:03:12;;;;;;;22.77;14.68;;;3.90;99.90;;;;;;5012344;28;20078;-75
2022/01/23 12:05:43;;;;;;;23.95;14.13;;;3.90;99.90;;;;;;5010524;28;20053;-77
2022/01/23 12:08:24;;;;;;;25.55;15.52;;;3.90;99.90;;;;;;5079995;28;20046;-77
2022/01/23 12:17:15;;;;;;;24.83;15.25;;;3.80;99.90;;;;;;5081322;28;20499;-77
2022/01/23 12:19:57;;;;;;;29.98;15.77;;;3.90;99.90;;;;;;5022665;28;20057;-77
2022/01/23 12:22:39;;;;;;;28.73;15.75;;;3.90;99.90;;;;;;5025517;28;20031;-76
2022/01/23 12:25:10;;;;;;;25.25;15.05;;;3.90;99.90;;;;;;5025451;28;20074;-77
2022/01/23 12:27:38;;;;;;;27.40;16.08;;;4.00;99.90;;;;;;5025900;28;20045;-76
2022/01/23 12:30:31;;;;;;;30.98;17.92;;;3.80;99.90;;;;;;5089410;28;20050;-77
2022/01/23 12:33:18;;;;;;;35.22;19.77;;;3.70;99.90;;;;;;5010809;28;20095;-76
2022/01/23 12:35:48;;;;;;;31.20;18.65;;;3.70;99.90;;;;;;5008296;28;20049;-77
2022/01/23 12:38:16;;;;;;;33.35;20.60;;;3.70;99.90;;;;;;5026374;28;20045;-76
2022/01/23 12:40:47;;;;;;;35.05;19.98;;;3.60;99.90;;;;;;5030123;28;20051;-76
2022/01/23 12:43:17;;;;;;;36.60;20.25;;;3.50;99.90;;;;;;5035273;28;20050;-77
2022/01/23 12:45:52;;;;;;;32.35;19.45;;;3.40;99.90;;;;;;5020356;28;20050;-77
2022/01/23 12:48:48;;;;;;;35.55;20.73;;;3.30;99.90;;;;;;5020370;28;20386;-77
2022/01/23 12:51:38;;;;;;;31.20;19.17;;;3.30;99.90;;;;;;5074237;28;20088;-75
2022/01/23 12:54:28;;;;;;;32.30;19.25;;;3.30;99.90;;;;;;5027556;28;20112;-76
2022/01/23 12:56:56;;;;;;;35.58;19.02;;;3.50;99.90;;;;;;5095194;28;20062;-75
2022/01/23 12:59:33;;;;;;;34.47;19.92;;;3.60;99.90;;;;;;5029251;28;20052;-76
2022/01/23 13:02:05;;;;;;;29.83;19.70;;;3.70;99.90;;;;;;5033115;28;20045;-76
2022/01/23 13:04:41;;;;;;;29.58;18.25;;;3.70;99.90;;;;;;5025083;28;20045;-76
2022/01/23 13:07:20;;;;;;;29.13;18.33;;;3.70;99.90;;;;;;5028025;28;20045;-76
2022/01/23 13:09:58;;;;;;;38.55;22.95;;;3.70;99.90;;;;;;5026058;28;20049;-75
2022/01/23 13:12:47;;;;;;;36.13;19.08;;;3.80;99.90;;;;;;5030327;28;20125;-75
2022/01/23 13:15:25;;;;;;;29.02;18.35;;;3.80;99.90;;;;;;5026599;28;20118;-75
2022/01/23 13:18:04;;;;;;;29.83;18.05;;;3.80;99.90;;;;;;5024803;28;20067;-76
2022/01/23 13:32:08;;;;;;;33.05;18.80;;;3.70;99.90;;;;;;5008833;28;20114;-75
2022/01/23 13:34:39;;;;;;;35.38;21.92;;;3.60;99.90;;;;;;5014645;28;20095;-76
2022/01/23 13:37:09;;;;;;;30.75;19.70;;;3.50;99.90;;;;;;5013530;28;20049;-76
2022/01/23 13:39:43;;;;;;;32.42;19.95;;;3.40;99.90;;;;;;5081961;28;20463;-74
2022/01/23 13:42:35;;;;;;;25.90;16.15;;;3.40;99.90;;;;;;5014641;28;20042;-75
2022/01/23 13:48:35;;;;;;;28.52;17.55;;;3.40;99.90;;;;;;5013065;28;20413;-74
2022/01/23 13:51:20;;;;;;;28.02;18.50;;;3.20;99.90;;;;;;5068271;28;20038;-76
2022/01/23 13:57:32;;;;;;;27.13;15.18;;;3.20;99.90;;;;;;5064782;28;20053;-76
2022/01/23 13:59:57;;;;;;;21.05;12.65;;;3.20;99.90;;;;;;5061720;28;20050;-76
2022/01/23 14:02:27;;;;;;;19.98;12.20;;;3.10;99.90;;;;;;4993313;28;20503;-76
2022/01/23 14:04:57;;;;;;;19.35;11.20;;;3.00;99.90;;;;;;4993251;28;20038;-75
2022/01/23 14:07:29;;;;;;;19.10;11.30;;;3.10;99.90;;;;;;4994322;28;20050;-76
2022/01/23 14:10:09;;;;;;;16.50;9.95;;;3.10;99.90;;;;;;5060410;28;20050;-76
2022/01/23 14:12:36;;;;;;;19.92;11.55;;;3.20;99.90;;;;;;4992436;28;20141;-77
2022/01/23 14:15:09;;;;;;;23.50;12.27;;;3.30;99.90;;;;;;5059797;28;20171;-74
2022/01/23 14:17:39;;;;;;;21.17;11.70;;;3.30;99.90;;;;;;4992781;28;20121;-75
2022/01/23 14:20:10;;;;;;;20.30;11.60;;;3.30;99.90;;;;;;5060814;28;20104;-75
2022/01/23 14:22:40;;;;;;;18.58;11.88;;;3.20;99.90;;;;;;4992885;28;20384;-76
2022/01/23 14:25:15;;;;;;;21.08;10.82;;;3.30;99.90;;;;;;4993265;28;20414;-76
2022/01/23 14:27:45;;;;;;;22.13;11.57;;;3.20;99.90;;;;;;4997319;28;20069;-76
2022/01/23 14:30:18;;;;;;;19.83;11.13;;;3.20;99.90;;;;;;4998475;28;20057;-76
2022/01/23 14:32:49;;;;;;;21.38;11.77;;;3.20;99.90;;;;;;5060119;28;20046;-76
2022/01/23 14:35:19;;;;;;;24.48;13.63;;;3.10;99.90;;;;;;4993276;28;20043;-76
2022/01/23 14:37:48;;;;;;;25.52;15.70;;;3.00;99.90;;;;;;5000540;28;20117;-76
2022/01/23 14:40:21;;;;;;;27.35;15.02;;;3.00;99.90;;;;;;5069742;28;20108;-75
2022/01/23 14:43:02;;;;;;;27.45;14.82;;;3.00;99.90;;;;;;4993316;28;20054;-76
2022/01/23 14:45:33;;;;;;;25.05;14.65;;;3.00;99.90;;;;;;4992579;28;20167;-76
2022/01/23 14:48:01;;;;;;;23.15;13.90;;;3.00;99.90;;;;;;5063935;28;20050;-76
2022/01/23 14:50:31;;;;;;;22.33;13.40;;;3.00;99.90;;;;;;5078087;28;20042;-76
2022/01/23 14:53:04;;;;;;;26.98;15.85;;;3.00;99.90;;;;;;4999091;28;20038;-75
2022/01/23 14:55:34;;;;;;;30.45;16.88;;;3.00;99.90;;;;;;5060311;28;20050;-76
2022/01/23 14:58:03;;;;;;;23.77;15.05;;;2.90;99.90;;;;;;4993331;28;20088;-76
2022/01/23 15:00:31;;;;;;;25.58;15.35;;;2.80;99.90;;;;;;5068096;28;20042;-76
2022/01/23 15:03:02;;;;;;;25.02;15.18;;;2.80;99.90;;;;;;5024573;28;20533;-76
2022/01/23 15:05:31;;;;;;;32.53;19.35;;;2.90;99.90;;;;;;5050955;28;20052;-76
2022/01/23 15:07:59;;;;;;;33.40;19.35;;;2.90;99.90;;;;;;5011650;28;20141;-76
2022/01/23 15:10:28;;;;;;;33.42;20.75;;;2.90;99.90;;;;;;5010490;28;20042;-76
2022/01/23 15:12:56;;;;;;;27.58;17.25;;;2.80;99.90;;;;;;5011744;28;20474;-77
2022/01/23 15:15:28;;;;;;;30.42;16.92;;;2.80;99.90;;;;;;5012166;28;20056;-76
2022/01/23 15:17:58;;;;;;;24.15;15.70;;;2.70;99.90;;;;;;5012517;28;20053;-76
2022/01/23 15:20:26;;;;;;;21.08;12.75;;;2.60;99.90;;;;;;5011114;28;20054;-76
2022/01/23 15:22:54;;;;;;;22.75;14.10;;;2.50;99.90;;;;;;5010857;28;20140;-75
2022/01/23 15:25:21;;;;;;;27.15;14.65;;;2.40;99.90;;;;;;5012965;28;20063;-75
2022/01/23 15:27:50;;;;;;;18.90;10.98;;;2.40;99.90;;;;;;5011384;28;20110;-75
2022/01/23 15:30:18;;;;;;;18.63;10.98;;;2.30;99.90;;;;;;5012017;28;20069;-75
2022/01/23 15:32:47;;;;;;;17.63;9.73;;;2.30;99.90;;;;;;5014026;28;20117;-76
2022/01/23 15:35:15;;;;;;;16.25;9.55;;;2.30;99.90;;;;;;5013756;28;20049;-76
2022/01/23 15:37:42;;;;;;;19.77;11.25;;;2.40;99.90;;;;;;5015002;28;20042;-76
2022/01/23 15:40:12;;;;;;;18.17;10.32;;;2.30;99.90;;;;;;5041932;28;20117;-76
2022/01/23 15:42:39;;;;;;;17.63;9.75;;;2.30;99.90;;;;;;5031065;28;20118;-76
2022/01/23 15:45:08;;;;;;;16.33;8.95;;;2.20;99.90;;;;;;5032252;28;20050;-76
2022/01/23 15:47:39;;;;;;;15.88;9.65;;;2.20;99.90;;;;;;5034585;28;20045;-76
2022/01/23 15:50:09;;;;;;;15.07;9.43;;;2.20;99.90;;;;;;5033509;28;20050;-75
2022/01/23 15:52:37;;;;;;;16.77;9.02;;;2.20;99.90;;;;;;5015222;28;20042;-75
2022/01/23 15:55:06;;;;;;;14.73;8.57;;;2.10;99.90;;;;;;5014155;28;20068;-77
2022/01/23 15:57:33;;;;;;;13.55;8.07;;;2.10;99.90;;;;;;5012495;28;20045;-74
2022/01/23 16:00:01;;;;;;;18.65;8.57;;;2.10;99.90;;;;;;5011101;28;20053;-76
2022/01/23 16:02:28;;;;;;;18.70;9.55;;;2.00;99.90;;;;;;5011157;28;20117;-76
2022/01/23 16:04:59;;;;;;;20.02;10.13;;;2.10;99.90;;;;;;5011872;28;20046;-74
2022/01/23 16:07:27;;;;;;;18.30;10.57;;;2.10;99.90;;;;;;5012894;28;20042;-76
2022/01/23 16:09:54;;;;;;;18.70;11.35;;;2.10;99.90;;;;;;5017693;28;20046;-76
2022/01/23 16:12:22;;;;;;;19.88;11.10;;;2.10;99.90;;;;;;5011150;28;20150;-76